Time;durP1;ratioP1;P1;durP2;ratioP2;P2;SDS_P1;SDS_P2;PMS_P1;PMS_P2;Temp;Humidity;BMP_temperature;BMP_pressure;BME280_temperature;BME280_humidity;BME280_pressure;Samples;Min_cycle;Max_cycle;Signal;HPM_P1;HPM_P2
2023/03/16 00:01:17;;;;;;;5.73;3.30;;;3.10;99.90;;;;;;5128855;27;20131;-76
2023/03/16 00:03:43;;;;;;;7.50;3.53;;;3.10;99.90;;;;;;5092327;27;20040;-76
2023/03/16 00:06:09;;;;;;;10.70;3.83;;;3.10;99.90;;;;;;5107356;27;20042;-76
2023/03/16 00:08:34;;;;;;;5.97;3.70;;;3.10;99.90;;;;;;5111474;27;20134;-76
2023/03/16 00:11:01;;;;;;;5.43;3.20;;;3.10;99.90;;;;;;5128277;27;20054;-75
2023/03/16 00:13:28;;;;;;;8.57;3.60;;;3.10;99.90;;;;;;5128272;27;20051;-75
2023/03/16 00:16:03;;;;;;;8.27;3.97;;;3.10;99.90;;;;;;5129266;27;20047;-75
2023/03/16 00:18:29;;;;;;;8.00;3.43;;;3.10;99.90;;;;;;5108081;27;20056;-75
2023/03/16 00:20:58;;;;;;;5.37;3.87;;;3.10;99.90;;;;;;5110762;27;20047;-75
2023/03/16 00:23:27;;;;;;;9.60;3.70;;;3.10;99.90;;;;;;5107287;27;20043;-75
2023/03/16 00:25:55;;;;;;;13.10;3.80;;;3.10;99.90;;;;;;5110538;27;20478;-75
2023/03/16 00:28:22;;;;;;;6.77;3.60;;;3.20;99.90;;;;;;5126497;27;20054;-75
2023/03/16 00:30:48;;;;;;;7.03;3.63;;;3.20;99.90;;;;;;5093240;27;20047;-75
2023/03/16 00:33:14;;;;;;;7.93;3.60;;;3.20;99.90;;;;;;5127279;27;20100;-74
2023/03/16 00:35:49;;;;;;;7.77;3.77;;;3.20;99.90;;;;;;5106846;27;20043;-75
2023/03/16 00:38:19;;;;;;;6.07;3.50;;;3.20;99.90;;;;;;5104916;27;20521;-75
2023/03/16 00:40:45;;;;;;;6.80;3.20;;;3.10;99.90;;;;;;5110773;27;20981;-75
2023/03/16 00:43:12;;;;;;;6.80;3.60;;;3.20;99.90;;;;;;5093764;27;20074;-76
2023/03/16 00:45:37;;;;;;;7.90;3.67;;;3.10;99.90;;;;;;5123639;27;20051;-75
2023/03/16 00:48:03;;;;;;;6.60;3.47;;;3.10;99.90;;;;;;5099312;28;20053;-76
2023/03/16 00:50:29;;;;;;;8.43;4.00;;;3.20;99.90;;;;;;5087466;27;20035;-75
2023/03/16 00:52:54;;;;;;;6.10;3.67;;;3.20;99.90;;;;;;5128765;27;20036;-75
2023/03/16 00:55:20;;;;;;;7.57;3.67;;;3.20;99.90;;;;;;5088534;27;20097;-75
2023/03/16 00:57:46;;;;;;;9.20;4.10;;;3.20;99.90;;;;;;5109208;27;20039;-75
2023/03/16 01:00:15;;;;;;;5.40;3.70;;;3.20;99.90;;;;;;5123800;27;20056;-75
2023/03/16 01:02:44;;;;;;;8.47;4.07;;;3.20;99.90;;;;;;5128389;27;20084;-75
2023/03/16 01:05:11;;;;;;;7.07;4.10;;;3.20;99.90;;;;;;5105360;27;20281;-75
2023/03/16 01:07:41;;;;;;;10.87;5.10;;;3.20;99.90;;;;;;5105952;27;20128;-75
2023/03/16 01:10:08;;;;;;;7.13;4.50;;;3.20;99.90;;;;;;5129173;27;20099;-75
2023/03/16 01:12:34;;;;;;;9.80;4.90;;;3.20;99.90;;;;;;5123251;27;20050;-75
2023/03/16 01:15:00;;;;;;;10.10;4.60;;;3.20;99.90;;;;;;5087543;27;20036;-75
2023/03/16 01:17:26;;;;;;;8.43;4.90;;;3.30;99.90;;;;;;5110085;27;20058;-75
2023/03/16 01:19:52;;;;;;;9.33;5.10;;;3.30;99.90;;;;;;5105399;27;20040;-75
2023/03/16 01:22:18;;;;;;;9.63;4.73;;;3.20;99.90;;;;;;5110160;27;20039;-75
2023/03/16 01:24:44;;;;;;;6.47;4.67;;;3.30;99.90;;;;;;5106137;27;20097;-75
2023/03/16 01:27:11;;;;;;;7.60;4.80;;;3.30;99.90;;;;;;5125116;27;20043;-75
2023/03/16 01:29:38;;;;;;;9.07;4.63;;;3.30;99.90;;;;;;5106814;27;20524;-75
2023/03/16 01:32:06;;;;;;;10.57;5.33;;;3.30;99.90;;;;;;5128596;27;20195;-75
2023/03/16 01:34:32;;;;;;;8.60;4.80;;;3.30;99.90;;;;;;5106742;27;20130;-75
2023/03/16 01:36:58;;;;;;;9.23;4.33;;;3.30;99.90;;;;;;5091081;27;20039;-76
2023/03/16 01:39:24;;;;;;;7.00;4.80;;;3.30;99.90;;;;;;5110436;27;20116;-75
2023/03/16 01:41:50;;;;;;;9.57;4.87;;;3.30;99.90;;;;;;5106774;28;20043;-75
2023/03/16 01:44:23;;;;;;;9.03;6.10;;;3.30;99.90;;;;;;5128752;27;20462;-75
2023/03/16 01:46:49;;;;;;;7.57;4.87;;;3.30;99.90;;;;;;5125901;27;20040;-75
2023/03/16 01:49:36;;;;;;;7.33;4.77;;;3.30;99.90;;;;;;5087850;27;20182;-75
2023/03/16 01:52:13;;;;;;;7.70;4.83;;;3.30;99.90;;;;;;5128566;27;20050;-75
2023/03/16 01:54:47;;;;;;;9.93;4.83;;;3.30;99.90;;;;;;5086801;27;20064;-75
2023/03/16 01:57:35;;;;;;;8.50;4.73;;;3.30;99.90;;;;;;5107136;28;20109;-75
2023/03/16 02:00:17;;;;;;;9.00;5.10;;;3.30;99.90;;;;;;5126464;27;20053;-75
2023/03/16 02:02:45;;;;;;;8.20;5.15;;;3.30;99.90;;;;;;5108832;27;20046;-75
2023/03/16 02:05:12;;;;;;;9.43;5.20;;;3.30;99.90;;;;;;5121904;27;20043;-75
2023/03/16 02:07:57;;;;;;;9.87;5.33;;;3.30;99.90;;;;;;5091128;28;20131;-75
2023/03/16 02:10:24;;;;;;;8.13;4.80;;;3.30;99.90;;;;;;5103182;27;20046;-75
2023/03/16 02:12:52;;;;;;;10.07;5.03;;;3.30;99.90;;;;;;5105043;27;20057;-75
2023/03/16 02:15:18;;;;;;;9.17;4.93;;;3.30;99.90;;;;;;5107411;28;20043;-75
2023/03/16 02:17:48;;;;;;;7.57;5.00;;;3.30;99.90;;;;;;5106855;27;20454;-75
2023/03/16 02:20:36;;;;;;;9.07;5.00;;;3.30;99.90;;;;;;5122708;27;20103;-74
2023/03/16 02:23:04;;;;;;;8.43;4.80;;;3.40;99.90;;;;;;5107485;28;20051;-74
2023/03/16 02:25:34;;;;;;;8.10;4.73;;;3.30;99.90;;;;;;5100375;28;20114;-75
2023/03/16 02:28:29;;;;;;;8.43;4.83;;;3.40;99.90;;;;;;5107848;28;20600;-75
2023/03/16 02:30:56;;;;;;;9.40;4.87;;;3.40;99.90;;;;;;5108415;28;20043;-75
2023/03/16 02:33:23;;;;;;;8.70;4.83;;;3.40;99.90;;;;;;5090604;28;20460;-75
2023/03/16 02:35:48;;;;;;;9.30;5.03;;;3.40;99.90;;;;;;5123932;28;20044;-74
2023/03/16 02:38:14;;;;;;;10.20;4.90;;;3.40;99.90;;;;;;5118357;28;20050;-74
2023/03/16 02:40:42;;;;;;;7.17;4.67;;;3.50;99.90;;;;;;5110503;28;20045;-74
2023/03/16 02:43:19;;;;;;;7.57;5.07;;;3.50;99.90;;;;;;5090546;28;20040;-75
2023/03/16 02:45:54;;;;;;;7.60;5.07;;;3.50;99.90;;;;;;5127731;28;20041;-75
2023/03/16 02:48:31;;;;;;;6.63;4.70;;;3.50;99.90;;;;;;5107212;28;20047;-75
2023/03/16 02:50:57;;;;;;;7.93;4.77;;;3.50;99.90;;;;;;5103580;28;20035;-75
2023/03/16 02:53:23;;;;;;;5.33;4.67;;;3.60;99.90;;;;;;5087642;28;20045;-75
2023/03/16 02:55:49;;;;;;;5.43;4.43;;;3.60;99.90;;;;;;5109221;28;20056;-75
2023/03/16 02:58:16;;;;;;;9.40;4.63;;;3.60;99.90;;;;;;5126348;28;20047;-75
2023/03/16 03:00:44;;;;;;;8.83;5.10;;;3.60;99.90;;;;;;5090685;28;20048;-75
2023/03/16 03:03:10;;;;;;;8.70;5.07;;;3.60;99.90;;;;;;5102903;28;20059;-75
2023/03/16 03:05:36;;;;;;;9.57;5.23;;;3.70;99.90;;;;;;5123040;28;20076;-75
2023/03/16 03:08:03;;;;;;;8.37;4.43;;;3.70;99.90;;;;;;5106718;28;20379;-74
2023/03/16 03:10:29;;;;;;;10.00;4.77;;;3.70;99.90;;;;;;5111325;28;20090;-75
2023/03/16 03:12:56;;;;;;;8.33;5.10;;;3.60;99.90;;;;;;5104181;28;20075;-75
2023/03/16 03:15:23;;;;;;;11.00;4.83;;;3.70;99.90;;;;;;5103258;28;20127;-75
2023/03/16 03:17:49;;;;;;;6.47;4.30;;;3.70;99.90;;;;;;5128022;28;20047;-74
2023/03/16 03:20:16;;;;;;;8.97;4.80;;;3.70;99.90;;;;;;5104852;28;20073;-75
2023/03/16 03:22:48;;;;;;;7.60;4.63;;;3.70;99.90;;;;;;5126360;28;20111;-74
2023/03/16 03:25:16;;;;;;;7.15;4.47;;;3.70;99.90;;;;;;5084741;28;20040;-75
2023/03/16 03:27:43;;;;;;;7.30;5.30;;;3.70;99.90;;;;;;5124337;28;20074;-75
2023/03/16 03:30:11;;;;;;;9.03;5.20;;;3.70;99.90;;;;;;5126132;28;20042;-74
2023/03/16 03:32:38;;;;;;;6.30;5.00;;;3.70;99.90;;;;;;5126095;28;20083;-74
2023/03/16 03:35:04;;;;;;;9.30;5.33;;;3.80;99.90;;;;;;5126264;27;20039;-75
2023/03/16 03:37:31;;;;;;;7.30;4.80;;;3.70;99.90;;;;;;5129416;27;20873;-74
2023/03/16 03:39:56;;;;;;;6.57;4.80;;;3.80;99.90;;;;;;5112307;27;20043;-74
2023/03/16 03:42:22;;;;;;;7.13;5.10;;;3.80;99.90;;;;;;5110824;27;20397;-75
2023/03/16 03:44:52;;;;;;;8.37;4.80;;;3.70;99.90;;;;;;5128176;27;20274;-74
2023/03/16 03:47:18;;;;;;;7.03;5.30;;;3.80;99.90;;;;;;5105239;27;20050;-74
2023/03/16 03:49:44;;;;;;;7.13;5.33;;;3.80;99.90;;;;;;5125381;27;20046;-75
2023/03/16 03:52:10;;;;;;;9.40;5.60;;;3.80;99.90;;;;;;5113365;27;20078;-75
2023/03/16 03:54:36;;;;;;;6.47;4.87;;;3.80;99.90;;;;;;5111909;27;20050;-75
2023/03/16 03:57:03;;;;;;;7.40;4.80;;;3.80;99.90;;;;;;5113184;27;20096;-75
2023/03/16 03:59:29;;;;;;;8.50;5.30;;;3.80;99.90;;;;;;5124730;27;20035;-74
2023/03/16 04:01:54;;;;;;;9.73;5.47;;;3.80;99.90;;;;;;5111444;27;20097;-74
2023/03/16 04:04:20;;;;;;;6.83;4.97;;;3.80;99.90;;;;;;5095386;27;20058;-74
2023/03/16 04:06:46;;;;;;;7.27;5.10;;;3.80;99.90;;;;;;5130845;27;20097;-75
2023/03/16 04:09:12;;;;;;;6.63;5.10;;;3.90;99.90;;;;;;5110694;27;20039;-75
2023/03/16 04:11:38;;;;;;;8.07;5.27;;;3.90;99.90;;;;;;5088633;27;20046;-74
2023/03/16 04:14:04;;;;;;;10.23;5.53;;;3.90;99.90;;;;;;5130108;27;20043;-75
2023/03/16 04:16:30;;;;;;;8.23;5.20;;;3.90;99.90;;;;;;5092269;27;20069;-75
2023/03/16 04:18:56;;;;;;;9.30;5.20;;;3.90;99.90;;;;;;5130168;27;20142;-75
2023/03/16 04:21:22;;;;;;;6.40;4.80;;;3.90;99.90;;;;;;5092847;27;20422;-75
2023/03/16 04:23:53;;;;;;;8.23;5.30;;;3.90;99.90;;;;;;5126812;27;20031;-74
2023/03/16 04:26:24;;;;;;;7.40;5.33;;;4.00;99.90;;;;;;5114143;27;20039;-75
2023/03/16 04:28:51;;;;;;;6.25;4.78;;;3.90;99.90;;;;;;5092930;27;20090;-75
2023/03/16 04:31:17;;;;;;;6.13;4.63;;;4.00;99.90;;;;;;5132339;27;20051;-75
2023/03/16 04:33:43;;;;;;;9.93;4.97;;;4.00;99.90;;;;;;5128464;27;20544;-75
2023/03/16 04:36:09;;;;;;;8.77;5.37;;;4.00;99.90;;;;;;5108332;27;20031;-75
2023/03/16 04:38:35;;;;;;;8.50;5.77;;;4.00;99.90;;;;;;5108938;27;20067;-75
2023/03/16 04:41:02;;;;;;;10.33;5.10;;;3.90;99.90;;;;;;5109186;27;20042;-75
2023/03/16 04:43:29;;;;;;;7.63;5.33;;;4.00;99.90;;;;;;5108539;27;20099;-75
2023/03/16 04:45:55;;;;;;;7.67;5.30;;;4.00;99.90;;;;;;5108675;28;20569;-75
2023/03/16 04:48:20;;;;;;;8.03;5.20;;;4.00;99.90;;;;;;5111885;27;20448;-74
2023/03/16 04:50:50;;;;;;;8.03;5.07;;;4.00;99.90;;;;;;5085765;27;20055;-75
2023/03/16 04:53:16;;;;;;;8.37;4.57;;;4.00;99.90;;;;;;5111054;27;20120;-74
2023/03/16 04:55:44;;;;;;;8.13;4.80;;;4.00;99.90;;;;;;5108958;27;20082;-74
2023/03/16 04:58:10;;;;;;;6.27;5.30;;;4.00;99.90;;;;;;5108816;27;20051;-74
2023/03/16 05:00:35;;;;;;;9.83;5.40;;;4.00;99.90;;;;;;5094838;27;20465;-75
2023/03/16 05:03:02;;;;;;;8.07;5.30;;;4.00;99.90;;;;;;5126654;27;20054;-75
2023/03/16 05:05:28;;;;;;;9.00;4.90;;;4.00;99.90;;;;;;5127076;27;20058;-75
2023/03/16 05:07:54;;;;;;;7.10;4.93;;;4.00;99.90;;;;;;5127901;27;20035;-76
2023/03/16 05:10:20;;;;;;;8.23;5.43;;;4.00;99.90;;;;;;5093742;27;20035;-75
2023/03/16 05:12:46;;;;;;;7.50;4.83;;;4.00;99.90;;;;;;5127666;27;20042;-73
2023/03/16 05:15:12;;;;;;;9.20;5.10;;;4.00;99.90;;;;;;5105140;27;20043;-74
2023/03/16 05:17:42;;;;;;;7.57;4.80;;;4.00;99.90;;;;;;5128145;27;20119;-75
2023/03/16 05:20:12;;;;;;;8.30;5.53;;;4.00;99.90;;;;;;5092686;27;20401;-75
2023/03/16 05:22:42;;;;;;;9.37;4.97;;;4.00;99.90;;;;;;5109908;27;20508;-75
2023/03/16 05:25:13;;;;;;;8.40;5.30;;;4.00;99.90;;;;;;5125195;27;20031;-73
2023/03/16 05:27:40;;;;;;;8.80;5.00;;;4.00;99.90;;;;;;5108839;27;20573;-75
2023/03/16 05:30:08;;;;;;;6.07;5.03;;;4.00;99.90;;;;;;5127331;27;20035;-75
2023/03/16 05:32:34;;;;;;;8.37;5.23;;;4.00;99.90;;;;;;5102061;27;20039;-74
2023/03/16 05:35:02;;;;;;;8.90;5.40;;;4.00;99.90;;;;;;5108127;27;20414;-75
2023/03/16 05:37:28;;;;;;;7.13;4.97;;;4.00;99.90;;;;;;5125060;27;20044;-75
2023/03/16 05:39:53;;;;;;;7.20;4.87;;;4.00;99.90;;;;;;5129172;27;20035;-75
2023/03/16 05:42:19;;;;;;;7.70;4.90;;;4.00;99.90;;;;;;5102131;27;20064;-75
2023/03/16 05:44:45;;;;;;;9.80;5.30;;;4.00;99.90;;;;;;5127721;27;20280;-75
2023/03/16 05:47:11;;;;;;;9.07;5.23;;;4.00;99.90;;;;;;5128200;27;20066;-75
2023/03/16 05:49:36;;;;;;;9.23;5.20;;;4.00;99.90;;;;;;5107304;27;20059;-76
2023/03/16 05:52:03;;;;;;;9.47;5.13;;;4.00;99.90;;;;;;5126853;27;20039;-77
2023/03/16 05:54:28;;;;;;;7.57;5.03;;;4.00;99.90;;;;;;5124623;27;20086;-83
2023/03/16 05:56:54;;;;;;;8.83;5.40;;;4.00;99.90;;;;;;5076246;27;20047;-73
2023/03/16 05:59:20;;;;;;;6.53;5.50;;;4.00;99.90;;;;;;5123438;27;20050;-77
2023/03/16 06:01:46;;;;;;;7.07;5.30;;;4.00;99.90;;;;;;5123826;27;20051;-72
2023/03/16 06:04:11;;;;;;;7.17;5.50;;;4.00;99.90;;;;;;5080580;28;20093;-72
2023/03/16 06:06:37;;;;;;;8.63;5.17;;;4.00;99.90;;;;;;5104646;27;20051;-72
2023/03/16 06:09:03;;;;;;;6.90;4.93;;;4.00;99.90;;;;;;5130149;27;20047;-73
2023/03/16 06:11:31;;;;;;;6.90;5.57;;;4.00;99.90;;;;;;5095070;28;20045;-74
2023/03/16 06:13:58;;;;;;;7.37;4.90;;;4.10;99.90;;;;;;5114878;28;20062;-74
2023/03/16 06:16:24;;;;;;;6.37;5.10;;;4.10;99.90;;;;;;5089810;28;20047;-74
2023/03/16 06:18:50;;;;;;;10.40;5.87;;;4.10;99.90;;;;;;5098534;27;20062;-74
2023/03/16 06:21:16;;;;;;;7.40;5.43;;;4.10;99.90;;;;;;5090120;27;20051;-74
2023/03/16 06:23:41;;;;;;;8.63;5.57;;;4.10;99.90;;;;;;5126996;27;20039;-74
2023/03/16 06:26:07;;;;;;;7.90;5.53;;;4.10;99.90;;;;;;5125987;27;20039;-74
2023/03/16 06:28:33;;;;;;;8.63;5.20;;;4.10;99.90;;;;;;5129145;28;20081;-74
2023/03/16 06:30:59;;;;;;;7.80;5.43;;;4.10;99.90;;;;;;5080639;28;20044;-74
2023/03/16 06:33:25;;;;;;;7.23;5.50;;;4.10;99.90;;;;;;5092348;28;20117;-74
2023/03/16 06:35:51;;;;;;;9.20;5.53;;;4.10;99.90;;;;;;5123772;28;20483;-74
2023/03/16 06:38:18;;;;;;;9.90;5.60;;;4.10;99.90;;;;;;5091205;28;20031;-74
2023/03/16 06:40:44;;;;;;;8.83;5.53;;;4.10;99.90;;;;;;5091741;28;20118;-74
2023/03/16 06:43:09;;;;;;;8.57;5.10;;;4.10;99.90;;;;;;5090268;28;20585;-76
2023/03/16 06:45:35;;;;;;;8.20;5.50;;;4.10;99.90;;;;;;5130392;28;20042;-74
2023/03/16 06:48:01;;;;;;;9.83;5.60;;;4.20;99.90;;;;;;5125164;28;20047;-74
2023/03/16 06:50:27;;;;;;;6.90;4.80;;;4.20;99.90;;;;;;5123054;28;20040;-74
2023/03/16 06:52:53;;;;;;;10.10;4.93;;;4.20;99.90;;;;;;5117699;28;20032;-74
2023/03/16 06:55:19;;;;;;;7.47;5.00;;;4.30;99.90;;;;;;5109935;28;20055;-73
2023/03/16 06:57:45;;;;;;;9.23;5.10;;;4.30;99.90;;;;;;5124848;28;20054;-73
2023/03/16 07:00:14;;;;;;;10.10;5.37;;;4.30;99.90;;;;;;5086575;28;20044;-73
2023/03/16 07:02:41;;;;;;;11.07;5.47;;;4.40;99.90;;;;;;5122964;28;20047;-73
2023/03/16 07:05:09;;;;;;;10.13;5.50;;;4.40;99.90;;;;;;5125417;28;20509;-74
2023/03/16 07:07:35;;;;;;;8.60;5.20;;;4.40;99.90;;;;;;5108205;28;20134;-73
2023/03/16 07:10:01;;;;;;;7.80;5.20;;;4.50;99.90;;;;;;5073890;28;20089;-74
2023/03/16 07:12:27;;;;;;;6.77;4.70;;;4.50;99.90;;;;;;5088209;27;20035;-74
2023/03/16 07:14:53;;;;;;;6.73;5.00;;;4.60;99.90;;;;;;5089846;28;20047;-73
2023/03/16 07:17:18;;;;;;;6.93;4.57;;;4.60;99.90;;;;;;5109235;27;20085;-73
2023/03/16 07:19:44;;;;;;;7.13;5.00;;;4.70;99.90;;;;;;5056290;27;20092;-73
2023/03/16 07:22:10;;;;;;;5.73;4.50;;;4.70;99.90;;;;;;5073379;27;21055;-73
2023/03/16 07:24:35;;;;;;;5.67;4.77;;;4.70;99.90;;;;;;5072630;27;20693;-74
2023/03/16 07:27:01;;;;;;;8.73;4.73;;;4.70;99.90;;;;;;5090409;27;20055;-74
2023/03/16 07:29:27;;;;;;;6.37;4.90;;;4.80;99.90;;;;;;5108546;27;20043;-74
2023/03/16 07:31:54;;;;;;;9.07;5.03;;;4.80;99.90;;;;;;5108946;27;20046;-74
2023/03/16 07:34:20;;;;;;;7.30;5.30;;;4.80;99.90;;;;;;5090765;27;20032;-74
2023/03/16 07:36:47;;;;;;;7.90;4.83;;;4.80;99.90;;;;;;5090572;27;20499;-73
2023/03/16 07:39:16;;;;;;;6.23;4.70;;;4.90;99.90;;;;;;5108664;27;20134;-73
2023/03/16 07:41:42;;;;;;;6.73;4.97;;;4.90;99.90;;;;;;5107002;27;20052;-74
2023/03/16 07:44:10;;;;;;;7.57;4.60;;;4.90;99.90;;;;;;5072678;28;20562;-73
2023/03/16 07:46:36;;;;;;;6.00;4.50;;;4.90;99.90;;;;;;5088648;27;20146;-74
2023/03/16 07:49:02;;;;;;;8.07;5.23;;;5.00;99.90;;;;;;5109152;27;20074;-74
2023/03/16 07:51:27;;;;;;;8.90;4.37;;;4.90;99.90;;;;;;5087666;27;20076;-73
2023/03/16 07:53:53;;;;;;;6.20;4.47;;;5.00;99.90;;;;;;5089194;27;20036;-74
2023/03/16 07:56:20;;;;;;;7.83;4.60;;;5.00;99.90;;;;;;5090751;28;20311;-74
2023/03/16 07:58:46;;;;;;;7.97;4.80;;;5.10;99.90;;;;;;5088273;28;20062;-73
2023/03/16 08:01:11;;;;;;;7.47;4.83;;;5.10;99.90;;;;;;5090550;27;20051;-73
2023/03/16 08:03:38;;;;;;;6.73;5.00;;;5.10;99.90;;;;;;5108075;27;20040;-73
2023/03/16 08:06:04;;;;;;;7.30;4.87;;;5.10;99.90;;;;;;5110803;27;20469;-73
2023/03/16 08:08:31;;;;;;;8.33;5.07;;;5.10;99.90;;;;;;5090084;28;20047;-73
2023/03/16 08:10:57;;;;;;;7.93;5.23;;;5.10;99.90;;;;;;5106862;27;20051;-74
2023/03/16 08:13:23;;;;;;;6.93;4.80;;;5.20;99.90;;;;;;5072955;27;20032;-73
2023/03/16 08:15:57;;;;;;;6.70;4.90;;;5.20;99.90;;;;;;5088066;27;20091;-73
2023/03/16 08:18:24;;;;;;;7.43;4.90;;;5.20;99.90;;;;;;5074268;28;20047;-74
2023/03/16 08:20:50;;;;;;;6.77;5.10;;;5.20;99.90;;;;;;5106353;27;20035;-73
2023/03/16 08:23:16;;;;;;;10.13;5.20;;;5.20;99.90;;;;;;5072892;27;20121;-73
2023/03/16 08:25:42;;;;;;;8.17;5.13;;;5.20;99.90;;;;;;5073226;27;20043;-73
2023/03/16 08:28:09;;;;;;;7.07;4.90;;;5.20;99.90;;;;;;5072520;28;20036;-73
2023/03/16 08:30:35;;;;;;;8.20;5.43;;;5.20;99.90;;;;;;5109539;27;20044;-74
2023/03/16 08:33:02;;;;;;;7.57;5.20;;;5.30;99.90;;;;;;5071475;27;20048;-74
2023/03/16 08:35:28;;;;;;;6.23;4.83;;;5.30;99.90;;;;;;5084839;28;20520;-74
2023/03/16 08:37:55;;;;;;;7.00;5.33;;;5.30;99.90;;;;;;5087421;27;20051;-74
2023/03/16 08:40:21;;;;;;;7.90;5.17;;;5.30;99.90;;;;;;5091314;27;20092;-74
2023/03/16 08:42:50;;;;;;;7.53;5.17;;;5.30;99.90;;;;;;5108907;27;20050;-74
2023/03/16 08:45:16;;;;;;;7.30;5.10;;;5.40;99.90;;;;;;5084550;28;20043;-74
2023/03/16 08:47:42;;;;;;;8.30;5.73;;;5.40;99.90;;;;;;5108905;27;20102;-74
2023/03/16 08:50:12;;;;;;;8.20;5.40;;;5.40;99.90;;;;;;5054596;27;20039;-74
2023/03/16 08:52:37;;;;;;;8.47;5.57;;;5.40;99.90;;;;;;5089319;27;20051;-75
2023/03/16 08:55:04;;;;;;;11.57;6.13;;;5.40;99.90;;;;;;5087327;27;20464;-74
2023/03/16 08:57:32;;;;;;;7.30;5.33;;;5.40;99.90;;;;;;5107779;27;20548;-74
2023/03/16 08:59:58;;;;;;;8.37;5.40;;;5.40;99.90;;;;;;5107486;27;20059;-74
2023/03/16 09:02:24;;;;;;;13.70;7.47;;;5.40;99.90;;;;;;5071586;27;20107;-73
2023/03/16 09:04:51;;;;;;;6.87;5.83;;;5.40;99.90;;;;;;5088985;27;20040;-74
2023/03/16 09:07:17;;;;;;;9.17;5.67;;;5.50;99.90;;;;;;5087751;27;20596;-74
2023/03/16 09:09:45;;;;;;;7.30;5.73;;;5.50;99.90;;;;;;5088535;27;20070;-73
2023/03/16 09:12:11;;;;;;;7.70;6.83;;;5.50;99.90;;;;;;5105348;27;20053;-73
2023/03/16 09:14:38;;;;;;;11.00;6.30;;;5.60;99.90;;;;;;5071328;27;20538;-73
2023/03/16 09:17:06;;;;;;;7.87;5.90;;;5.60;99.90;;;;;;5107663;27;20043;-73
2023/03/16 09:19:33;;;;;;;8.20;5.70;;;5.60;99.90;;;;;;5086741;28;20046;-74
2023/03/16 09:21:59;;;;;;;10.20;6.70;;;5.70;99.90;;;;;;5072254;27;20036;-73
2023/03/16 09:24:24;;;;;;;8.77;6.13;;;5.80;99.90;;;;;;5086800;28;20048;-73
2023/03/16 09:26:50;;;;;;;10.40;6.23;;;5.70;99.90;;;;;;5072106;27;20051;-73
2023/03/16 09:29:17;;;;;;;10.73;6.33;;;5.70;99.90;;;;;;5104898;27;20163;-73
2023/03/16 09:31:44;;;;;;;8.83;6.17;;;5.70;99.90;;;;;;5088310;28;20051;-74
2023/03/16 09:34:10;;;;;;;9.93;5.87;;;5.80;99.90;;;;;;5107078;27;20052;-73
2023/03/16 09:36:36;;;;;;;8.43;6.10;;;5.80;99.90;;;;;;5087486;28;20683;-73
2023/03/16 09:39:02;;;;;;;9.27;6.63;;;5.80;99.90;;;;;;5107704;27;20040;-73
2023/03/16 09:41:46;;;;;;;10.27;6.47;;;5.80;99.90;;;;;;5085768;27;20070;-73
2023/03/16 09:44:25;;;;;;;7.50;5.73;;;5.80;99.90;;;;;;5090435;27;20055;-73
2023/03/16 09:46:52;;;;;;;10.77;5.90;;;5.80;99.90;;;;;;5086947;28;20063;-73
2023/03/16 09:49:20;;;;;;;10.10;6.50;;;5.80;99.90;;;;;;5105549;27;20043;-73
2023/03/16 09:52:19;;;;;;;10.20;6.50;;;5.90;99.90;;;;;;5088667;28;20044;-73
2023/03/16 09:54:52;;;;;;;8.80;6.73;;;6.00;99.90;;;;;;5069052;28;20040;-73
2023/03/16 09:57:39;;;;;;;10.80;6.63;;;6.00;99.90;;;;;;5106755;27;20445;-73
2023/03/16 10:00:20;;;;;;;11.23;6.57;;;6.10;99.90;;;;;;5072008;28;20484;-73
2023/03/16 10:03:05;;;;;;;12.32;7.00;;;6.20;99.90;;;;;;5104412;27;20039;-73
2023/03/16 10:05:31;;;;;;;9.60;6.80;;;6.30;99.90;;;;;;5107068;27;20073;-73
2023/03/16 10:08:23;;;;;;;11.07;6.60;;;6.30;99.90;;;;;;5105021;27;20047;-73
2023/03/16 10:10:54;;;;;;;9.50;6.67;;;6.40;99.90;;;;;;5106134;27;20036;-73
2023/03/16 10:13:39;;;;;;;8.02;6.07;;;6.40;99.90;;;;;;5088746;28;20431;-74
2023/03/16 10:16:16;;;;;;;9.87;6.97;;;6.40;99.90;;;;;;5104479;27;20576;-73
2023/03/16 10:18:49;;;;;;;9.27;6.13;;;6.40;99.90;;;;;;5106364;27;20046;-73
2023/03/16 10:21:17;;;;;;;8.10;6.57;;;6.40;99.90;;;;;;5087552;28;20077;-73
2023/03/16 10:23:48;;;;;;;9.17;6.53;;;6.40;99.90;;;;;;5070424;28;20118;-73
2023/03/16 10:26:28;;;;;;;9.87;6.37;;;6.40;99.90;;;;;;5106874;27;20051;-73
2023/03/16 10:28:54;;;;;;;10.77;6.60;;;6.40;99.90;;;;;;5086222;28;20047;-73
2023/03/16 10:31:21;;;;;;;8.47;6.57;;;6.40;99.90;;;;;;5110109;28;20053;-74
2023/03/16 10:33:51;;;;;;;11.90;7.13;;;6.40;99.90;;;;;;5072758;28;20047;-74
2023/03/16 10:36:35;;;;;;;10.30;6.37;;;6.40;99.90;;;;;;5086040;28;20144;-74
2023/03/16 10:39:09;;;;;;;13.37;6.13;;;6.50;99.90;;;;;;5088802;28;20054;-72
2023/03/16 10:41:44;;;;;;;9.77;6.17;;;6.50;99.90;;;;;;5105205;28;20077;-73
2023/03/16 10:44:15;;;;;;;10.73;5.87;;;6.50;99.90;;;;;;5106299;28;20105;-73
2023/03/16 10:46:47;;;;;;;8.10;5.93;;;6.50;99.90;;;;;;5109347;27;20067;-73
2023/03/16 10:49:25;;;;;;;8.60;6.13;;;6.60;99.90;;;;;;5090427;27;20594;-73
2023/03/16 10:51:58;;;;;;;9.77;6.03;;;6.50;99.90;;;;;;5109874;27;20048;-73
2023/03/16 10:54:38;;;;;;;9.80;6.80;;;6.60;99.90;;;;;;5107565;27;20656;-73
2023/03/16 10:57:19;;;;;;;9.13;6.33;;;6.60;99.90;;;;;;5091084;28;20055;-73
2023/03/16 10:59:54;;;;;;;9.27;5.57;;;6.60;99.90;;;;;;5091399;28;20050;-73
2023/03/16 11:02:31;;;;;;;8.73;5.47;;;6.60;99.90;;;;;;5108265;27;20055;-73
2023/03/16 11:04:57;;;;;;;7.27;5.30;;;6.60;99.90;;;;;;5091922;28;20489;-73
2023/03/16 11:07:24;;;;;;;8.90;5.50;;;6.60;99.90;;;;;;5089821;28;20036;-73
2023/03/16 11:09:51;;;;;;;8.67;5.97;;;6.60;99.90;;;;;;5074799;27;20051;-73
2023/03/16 11:12:25;;;;;;;9.07;6.13;;;6.70;99.90;;;;;;5089967;27;20047;-73
2023/03/16 11:14:51;;;;;;;9.60;5.60;;;6.70;99.90;;;;;;5091648;27;20043;-73
2023/03/16 11:17:52;;;;;;;8.17;5.60;;;6.70;99.90;;;;;;5110469;27;20039;-73
2023/03/16 11:20:32;;;;;;;9.53;5.60;;;6.80;99.90;;;;;;4991617;28;20058;-73
2023/03/16 11:22:59;;;;;;;10.93;5.83;;;6.80;99.90;;;;;;5099277;27;20064;-73
2023/03/16 11:25:45;;;;;;;7.83;5.10;;;6.80;99.90;;;;;;5073889;28;20059;-74
2023/03/16 11:28:38;;;;;;;8.00;5.30;;;6.90;99.90;;;;;;5107976;27;20040;-73
2023/03/16 11:31:07;;;;;;;8.23;5.53;;;6.90;99.90;;;;;;5098773;27;20162;-73
2023/03/16 11:33:34;;;;;;;10.33;4.97;;;6.90;99.90;;;;;;5089858;27;20043;-73
2023/03/16 11:36:20;;;;;;;7.40;5.43;;;6.90;99.90;;;;;;5091208;27;20039;-74
2023/03/16 11:38:58;;;;;;;7.83;5.90;;;6.90;99.90;;;;;;5111362;27;20028;-73
2023/03/16 11:41:32;;;;;;;7.40;5.40;;;6.90;99.90;;;;;;5081894;27;20058;-73
2023/03/16 11:44:42;;;;;;;9.17;5.10;;;6.90;99.90;;;;;;5090816;27;20446;-73
2023/03/16 11:47:49;;;;;;;8.97;5.37;;;6.90;99.90;;;;;;5099107;27;20079;-73
2023/03/16 11:50:43;;;;;;;6.57;5.40;;;6.90;99.90;;;;;;5121257;27;20036;-72
2023/03/16 11:53:18;;;;;;;8.80;5.63;;;6.90;99.90;;;;;;5129171;27;20052;-74
2023/03/16 11:55:57;;;;;;;8.73;5.20;;;7.00;99.90;;;;;;5116973;27;20059;-72
2023/03/16 11:58:51;;;;;;;9.00;6.60;;;7.00;99.90;;;;;;5101635;28;20113;-73
2023/03/16 12:01:23;;;;;;;12.27;6.97;;;7.10;99.90;;;;;;5111991;27;20417;-73
2023/03/16 12:04:22;;;;;;;12.82;7.55;;;7.20;99.90;;;;;;5128148;27;20050;-73
2023/03/16 12:07:08;;;;;;;15.80;8.30;;;7.20;99.90;;;;;;5096763;28;20090;-74
2023/03/16 12:10:22;;;;;;;7.23;4.80;;;7.20;99.90;;;;;;5120315;27;20077;-73
2023/03/16 12:13:29;;;;;;;9.00;5.00;;;7.30;99.90;;;;;;5114676;27;20088;-73
2023/03/16 12:16:20;;;;;;;8.13;5.00;;;7.30;99.90;;;;;;5128684;27;20071;-73
2023/03/16 12:18:58;;;;;;;8.47;5.17;;;7.50;99.90;;;;;;5105429;27;20185;-73
2023/03/16 12:21:41;;;;;;;6.53;4.70;;;7.60;99.90;;;;;;5083132;28;20054;-73
2023/03/16 12:24:15;;;;;;;7.27;5.10;;;7.80;99.90;;;;;;5128535;27;20058;-73
2023/03/16 12:26:42;;;;;;;6.37;4.83;;;7.90;99.90;;;;;;5108385;27;20055;-74
2023/03/16 12:29:20;;;;;;;9.00;5.23;;;8.00;99.90;;;;;;5090540;27;20135;-74
2023/03/16 12:31:54;;;;;;;6.50;4.93;;;8.10;99.90;;;;;;5106173;28;20049;-74
2023/03/16 12:34:35;;;;;;;8.57;4.73;;;8.20;99.90;;;;;;5116303;27;20511;-73
2023/03/16 12:37:06;;;;;;;7.17;4.87;;;8.30;99.90;;;;;;5097292;27;20043;-73
2023/03/16 12:39:50;;;;;;;8.95;5.05;;;8.30;99.90;;;;;;5112986;27;20072;-73
2023/03/16 12:42:36;;;;;;;10.90;5.43;;;8.40;99.90;;;;;;5106957;27;20094;-73
2023/03/16 12:45:07;;;;;;;8.10;4.50;;;8.40;99.90;;;;;;5122757;27;20127;-74
2023/03/16 12:48:03;;;;;;;12.97;5.40;;;8.40;99.90;;;;;;5119196;27;20131;-73
2023/03/16 12:50:29;;;;;;;11.33;4.70;;;8.50;99.90;;;;;;5108064;27;20062;-73
2023/03/16 12:52:54;;;;;;;8.97;4.83;;;8.60;99.90;;;;;;5087787;27;20047;-73
2023/03/16 12:55:26;;;;;;;16.13;5.07;;;8.60;99.90;;;;;;5101532;28;20066;-73
2023/03/16 12:58:00;;;;;;;6.43;4.60;;;8.60;99.90;;;;;;5084907;28;20063;-73
2023/03/16 13:00:39;;;;;;;17.17;5.70;;;8.60;99.90;;;;;;5097514;28;20055;-72
2023/03/16 13:03:11;;;;;;;7.27;4.67;;;8.60;99.90;;;;;;5096984;28;20071;-73
2023/03/16 13:05:44;;;;;;;14.40;4.97;;;8.60;99.90;;;;;;5082439;28;20054;-74
2023/03/16 13:08:14;;;;;;;8.07;4.63;;;8.60;99.90;;;;;;5087029;28;20083;-73
2023/03/16 13:10:41;;;;;;;6.57;4.70;;;8.60;99.90;;;;;;5094596;28;20501;-73